Time;durP1;ratioP1;P1;durP2;ratioP2;P2;SDS_P1;SDS_P2;PMS_P1;PMS_P2;Temp;Humidity;BMP_temperature;BMP_pressure;BME280_temperature;BME280_humidity;BME280_pressure;Samples;Min_cycle;Max_cycle;Signal;HPM_P1;HPM_P2
2022/01/31 00:01:05;;;;;;;14.20;5.22;;;4.20;83.80;;;;;;5135179;27;20060;-77
2022/01/31 00:03:33;;;;;;;15.20;6.32;;;4.20;84.80;;;;;;5135545;27;20019;-73
2022/01/31 00:06:03;;;;;;;14.40;5.75;;;4.20;85.00;;;;;;5135097;27;20568;-78
2022/01/31 00:08:29;;;;;;;14.00;5.43;;;4.20;86.00;;;;;;5135089;27;20030;-77
2022/01/31 00:10:55;;;;;;;13.57;6.28;;;4.10;84.30;;;;;;5135183;27;20098;-72
2022/01/31 00:13:46;;;;;;;14.70;6.00;;;4.10;83.10;;;;;;5134525;27;20023;-75
2022/01/31 00:16:16;;;;;;;17.52;6.03;;;4.10;86.50;;;;;;5134575;27;20047;-73
2022/01/31 00:18:42;;;;;;;11.27;4.93;;;4.10;85.70;;;;;;5099282;27;20080;-79
2022/01/31 00:21:08;;;;;;;11.75;5.25;;;4.10;85.80;;;;;;5134892;27;20419;-71
2022/01/31 00:23:34;;;;;;;9.18;3.85;;;4.20;83.50;;;;;;5134099;27;20076;-80
2022/01/31 00:26:00;;;;;;;17.58;5.45;;;4.20;83.80;;;;;;5134934;27;20495;-77
2022/01/31 00:28:26;;;;;;;11.88;4.53;;;4.20;85.30;;;;;;5134642;27;20023;-79
2022/01/31 00:30:52;;;;;;;10.95;5.07;;;4.30;84.50;;;;;;5134675;27;20098;-77
2022/01/31 00:33:18;;;;;;;10.55;4.57;;;4.30;83.80;;;;;;5116499;27;20023;-78
2022/01/31 00:35:44;;;;;;;8.85;3.50;;;4.30;84.20;;;;;;5135040;27;20034;-72
2022/01/31 00:38:10;;;;;;;13.48;3.97;;;4.30;84.90;;;;;;5135078;27;20058;-75
2022/01/31 00:40:41;;;;;;;11.23;4.47;;;4.30;85.10;;;;;;5134428;27;20480;-75
2022/01/31 00:43:12;;;;;;;10.15;4.15;;;4.20;85.00;;;;;;5134804;27;20482;-73
2022/01/31 00:45:45;;;;;;;17.02;6.15;;;4.20;84.10;;;;;;5116419;27;20039;-77
2022/01/31 00:48:17;;;;;;;12.10;4.07;;;4.20;84.60;;;;;;5098971;27;20023;-74
2022/01/31 00:50:47;;;;;;;14.82;5.20;;;4.30;84.30;;;;;;5134528;27;20124;-76
2022/01/31 00:53:13;;;;;;;13.90;4.25;;;4.40;80.80;;;;;;5134570;27;20106;-77
2022/01/31 00:55:39;;;;;;;12.57;3.47;;;4.30;83.20;;;;;;5134051;27;20049;-78
2022/01/31 00:58:05;;;;;;;14.75;5.15;;;4.20;85.00;;;;;;5115401;27;20388;-75
2022/01/31 01:00:31;;;;;;;11.18;4.50;;;4.10;84.00;;;;;;5133715;27;20019;-77
2022/01/31 01:02:57;;;;;;;9.20;3.03;;;4.30;83.80;;;;;;5133884;27;20066;-79
2022/01/31 01:05:24;;;;;;;11.65;5.70;;;4.30;83.70;;;;;;5098287;27;20118;-77
2022/01/31 01:07:50;;;;;;;10.55;4.07;;;4.20;83.70;;;;;;5115447;27;20038;-76
2022/01/31 01:10:18;;;;;;;10.65;4.15;;;4.30;82.60;;;;;;5098131;27;20389;-76
2022/01/31 01:12:50;;;;;;;12.77;4.45;;;4.30;83.40;;;;;;5133003;27;20024;-70
2022/01/31 01:15:16;;;;;;;13.00;4.20;;;4.30;83.70;;;;;;5114921;27;20089;-77
2022/01/31 01:18:03;;;;;;;8.30;3.60;;;4.30;81.80;;;;;;5114371;27;20027;-76
2022/01/31 01:20:30;;;;;;;8.90;3.28;;;4.20;84.50;;;;;;5115336;27;20114;-78
2022/01/31 01:22:57;;;;;;;13.95;4.57;;;4.30;80.90;;;;;;5114853;27;20023;-75
2022/01/31 01:25:23;;;;;;;14.07;5.47;;;4.30;80.00;;;;;;5133536;27;20049;-74
2022/01/31 01:27:52;;;;;;;12.18;3.35;;;4.20;80.20;;;;;;5133579;27;20015;-72
2022/01/31 01:30:19;;;;;;;13.68;5.35;;;4.10;83.40;;;;;;5114725;27;20031;-70
2022/01/31 01:33:11;;;;;;;11.20;4.35;;;4.00;85.80;;;;;;5114463;27;20027;-78
2022/01/31 01:35:34;;;;;;;16.30;5.85;;;4.00;85.00;;;;;;5132394;27;20043;-78
2022/01/31 01:38:06;;;;;;;14.73;5.78;;;3.90;85.20;;;;;;5114615;27;20019;-69
2022/01/31 01:40:34;;;;;;;14.05;5.95;;;3.80;83.30;;;;;;5131901;27;20129;-69
2022/01/31 01:43:00;;;;;;;14.93;5.05;;;3.70;86.50;;;;;;5113977;27;20027;-73
2022/01/31 01:45:26;;;;;;;18.65;6.53;;;3.70;83.80;;;;;;5132689;27;20168;-72
2022/01/31 01:47:52;;;;;;;18.55;7.20;;;3.70;87.70;;;;;;5132880;27;20023;-67
2022/01/31 01:50:18;;;;;;;12.82;5.28;;;3.60;84.70;;;;;;5113732;27;20405;-71
2022/01/31 01:52:44;;;;;;;18.80;7.82;;;3.60;85.40;;;;;;5132527;27;20019;-75
2022/01/31 01:55:11;;;;;;;20.05;7.68;;;3.50;86.80;;;;;;5114411;27;20451;-78
2022/01/31 01:57:39;;;;;;;16.33;7.07;;;3.50;87.40;;;;;;5096632;27;20027;-77
2022/01/31 02:00:08;;;;;;;18.73;8.35;;;3.50;85.50;;;;;;5114470;27;20046;-70
2022/01/31 02:02:34;;;;;;;15.90;6.18;;;3.50;84.70;;;;;;5133102;27;20031;-76
2022/01/31 02:05:03;;;;;;;13.80;6.05;;;3.50;85.10;;;;;;5098131;27;20035;-77
2022/01/31 02:07:38;;;;;;;15.43;6.70;;;3.50;84.40;;;;;;5133140;27;20524;-70
2022/01/31 02:10:10;;;;;;;17.30;6.60;;;3.40;84.20;;;;;;5114684;27;20434;-76
2022/01/31 02:12:53;;;;;;;23.38;8.38;;;3.40;86.40;;;;;;5099576;27;20428;-74
2022/01/31 02:15:40;;;;;;;14.63;5.13;;;3.30;85.90;;;;;;5029529;28;20069;-68
2022/01/31 02:18:28;;;;;;;9.95;3.97;;;3.30;86.50;;;;;;5029526;28;20060;-70
2022/01/31 02:20:55;;;;;;;14.65;6.68;;;3.30;85.50;;;;;;5013024;28;20048;-76
2022/01/31 02:23:23;;;;;;;15.13;7.82;;;3.20;86.00;;;;;;5012692;28;20161;-74
2022/01/31 02:26:03;;;;;;;16.05;7.07;;;3.20;85.40;;;;;;5012353;28;20037;-71
2022/01/31 02:28:52;;;;;;;15.00;7.32;;;3.10;86.60;;;;;;4989611;28;20049;-77
2022/01/31 02:31:20;;;;;;;19.05;7.43;;;3.10;85.60;;;;;;4989609;28;20043;-74
2022/01/31 02:33:47;;;;;;;25.55;12.85;;;3.00;85.70;;;;;;4973826;28;20045;-76
2022/01/31 02:36:13;;;;;;;29.10;13.43;;;3.00;86.70;;;;;;4973572;28;20400;-79
2022/01/31 02:38:39;;;;;;;28.02;12.68;;;3.00;86.40;;;;;;4989654;28;20026;-78
2022/01/31 02:41:06;;;;;;;21.63;9.18;;;3.00;87.10;;;;;;4973390;28;20050;-72
2022/01/31 02:43:33;;;;;;;15.10;5.93;;;3.00;88.70;;;;;;4989450;28;20586;-77
2022/01/31 02:46:01;;;;;;;11.00;4.60;;;3.00;88.00;;;;;;4973454;28;20121;-74
2022/01/31 02:48:30;;;;;;;18.65;5.07;;;2.90;89.50;;;;;;4973446;28;20044;-77
2022/01/31 02:50:58;;;;;;;7.38;3.30;;;2.90;89.10;;;;;;4973257;28;20038;-70
2022/01/31 02:53:31;;;;;;;7.75;2.83;;;2.80;89.70;;;;;;5021375;28;20068;-73
2022/01/31 02:56:00;;;;;;;9.07;2.97;;;2.80;90.20;;;;;;5036209;28;20037;-72
2022/01/31 02:58:27;;;;;;;14.05;3.95;;;2.70;90.70;;;;;;5035519;28;20029;-76
2022/01/31 03:00:56;;;;;;;9.85;3.60;;;2.70;90.60;;;;;;5052596;28;20048;-77
2022/01/31 03:03:39;;;;;;;11.07;4.20;;;2.60;91.50;;;;;;5035817;28;20037;-77
2022/01/31 03:06:05;;;;;;;11.23;3.67;;;2.60;92.00;;;;;;5084490;27;20138;-69
2022/01/31 03:08:32;;;;;;;9.75;4.45;;;2.60;91.40;;;;;;5117583;27;20034;-78
2022/01/31 03:11:13;;;;;;;14.73;5.82;;;2.50;92.00;;;;;;5117392;27;20041;-75
2022/01/31 03:13:49;;;;;;;14.05;6.68;;;2.50;91.90;;;;;;5117355;27;20354;-78
2022/01/31 03:16:18;;;;;;;12.70;4.57;;;2.50;92.30;;;;;;5117448;27;20472;-76
2022/01/31 03:19:02;;;;;;;11.88;4.28;;;2.50;92.20;;;;;;5136232;27;20376;-78
2022/01/31 03:21:28;;;;;;;12.27;4.03;;;2.50;92.20;;;;;;5117711;27;20035;-78
2022/01/31 03:23:54;;;;;;;14.35;5.25;;;2.50;92.00;;;;;;5117279;27;20023;-74
2022/01/31 03:26:21;;;;;;;17.35;6.57;;;2.50;91.70;;;;;;5117072;27;20133;-77
2022/01/31 03:28:49;;;;;;;16.80;5.90;;;2.50;91.90;;;;;;5135382;27;20047;-69
2022/01/31 03:31:18;;;;;;;15.38;4.88;;;2.40;92.70;;;;;;5117363;27;20065;-68
2022/01/31 03:33:46;;;;;;;16.50;4.90;;;2.50;92.80;;;;;;5100456;27;20020;-77
2022/01/31 03:36:12;;;;;;;13.77;5.63;;;2.50;92.50;;;;;;5117202;27;20033;-74
2022/01/31 03:38:41;;;;;;;17.35;5.85;;;2.60;92.40;;;;;;5100085;27;20019;-78
2022/01/31 03:41:08;;;;;;;23.30;7.93;;;2.70;92.00;;;;;;5117302;27;20074;-77
2022/01/31 03:43:35;;;;;;;20.70;6.82;;;2.70;92.30;;;;;;5116721;27;20589;-71
2022/01/31 03:46:01;;;;;;;18.02;7.57;;;2.70;92.00;;;;;;5117159;27;20374;-78
2022/01/31 03:48:30;;;;;;;22.00;8.32;;;2.80;91.30;;;;;;5116818;27;20038;-76
2022/01/31 03:50:59;;;;;;;24.20;7.28;;;2.80;91.70;;;;;;5117085;27;20042;-73
2022/01/31 03:53:27;;;;;;;14.73;5.75;;;2.80;91.30;;;;;;5116693;27;20792;-74
2022/01/31 03:55:53;;;;;;;22.55;6.07;;;2.80;93.00;;;;;;5116752;27;20035;-71
2022/01/31 03:58:19;;;;;;;22.85;7.50;;;2.70;91.70;;;;;;5099645;27;20022;-76
2022/01/31 04:00:48;;;;;;;26.67;9.52;;;2.80;90.70;;;;;;5135227;27;20410;-79
2022/01/31 04:03:15;;;;;;;28.70;9.95;;;2.90;90.40;;;;;;5134561;27;20035;-76
2022/01/31 04:05:41;;;;;;;23.70;8.65;;;2.80;90.50;;;;;;5135333;27;20385;-79
2022/01/31 04:08:08;;;;;;;25.67;9.38;;;2.80;90.40;;;;;;5134913;27;20023;-74
2022/01/31 04:10:35;;;;;;;21.00;8.27;;;2.80;90.60;;;;;;5135153;27;20042;-74
2022/01/31 04:13:01;;;;;;;23.85;8.10;;;2.70;90.80;;;;;;5134572;27;20047;-70
2022/01/31 04:15:27;;;;;;;17.60;6.38;;;2.70;90.80;;;;;;5134288;27;20434;-75
2022/01/31 04:17:53;;;;;;;26.08;9.38;;;2.60;91.30;;;;;;5134089;27;20027;-70
2022/01/31 04:20:20;;;;;;;25.05;9.27;;;2.60;91.70;;;;;;5134461;27;20135;-70
2022/01/31 04:22:57;;;;;;;27.65;9.30;;;2.50;91.90;;;;;;5134345;27;20023;-75
2022/01/31 04:25:51;;;;;;;27.60;11.82;;;2.50;91.70;;;;;;5134457;27;20043;-67
2022/01/31 04:28:26;;;;;;;26.55;13.40;;;2.40;92.00;;;;;;5134129;27;20039;-78
2022/01/31 04:30:57;;;;;;;;;;;2.40;92.20;;;;;;5134436;27;20035;-71
2022/01/31 04:33:25;;;;;;;32.15;13.68;;;2.40;92.30;;;;;;5134416;27;19907;-72
2022/01/31 04:35:51;;;;;;;34.90;14.73;;;2.40;93.20;;;;;;5134517;27;20045;-79
2022/01/31 04:38:18;;;;;;;34.47;13.85;;;2.40;92.30;;;;;;5134216;27;20088;-69
2022/01/31 04:40:44;;;;;;;34.03;12.80;;;2.40;92.40;;;;;;5115816;27;20055;-74
2022/01/31 04:43:10;;;;;;;33.60;12.45;;;2.30;93.10;;;;;;5133805;27;20028;-73
2022/01/31 04:45:36;;;;;;;37.78;13.68;;;2.20;93.10;;;;;;5134136;27;20249;-69
2022/01/31 04:48:02;;;;;;;39.28;14.43;;;2.20;93.20;;;;;;5133923;27;20038;-69
2022/01/31 04:50:28;;;;;;;26.63;13.35;;;2.20;93.70;;;;;;5134194;27;20019;-75
2022/01/31 04:52:54;;;;;;;35.15;13.43;;;2.10;94.60;;;;;;5133810;27;20061;-70
2022/01/31 04:55:20;;;;;;;22.85;11.13;;;2.10;95.50;;;;;;5133983;27;20031;-77
2022/01/31 04:57:46;;;;;;;27.05;10.23;;;2.10;94.60;;;;;;5134138;27;20114;-79
2022/01/31 05:00:12;;;;;;;31.67;13.45;;;2.10;94.70;;;;;;5115648;27;20035;-73
2022/01/31 05:02:38;;;;;;;25.75;12.23;;;1.90;95.20;;;;;;5133289;27;20035;-73
2022/01/31 05:05:04;;;;;;;28.05;11.80;;;1.90;95.80;;;;;;5133621;27;20366;-79
2022/01/31 05:07:32;;;;;;;26.42;13.45;;;1.90;97.70;;;;;;5133836;27;20118;-81
2022/01/31 05:09:58;;;;;;;34.67;15.95;;;1.90;97.50;;;;;;5115173;27;20139;-80
2022/01/31 05:12:26;;;;;;;40.45;18.67;;;1.80;98.00;;;;;;5133429;27;20042;-80
2022/01/31 05:14:51;;;;;;;37.42;16.75;;;1.80;97.30;;;;;;5132649;27;20028;-78
2022/01/31 05:17:20;;;;;;;42.65;21.02;;;1.70;99.30;;;;;;5132583;27;20034;-80
2022/01/31 05:19:46;;;;;;;52.22;23.05;;;1.50;99.90;;;;;;5115168;27;20019;-71
2022/01/31 05:22:12;;;;;;;42.80;21.90;;;1.50;99.90;;;;;;5133130;27;20045;-82
2022/01/31 05:24:38;;;;;;;59.80;34.03;;;1.50;99.90;;;;;;5133166;27;20062;-83
2022/01/31 05:27:05;;;;;;;67.18;31.02;;;1.50;99.90;;;;;;5133757;27;20039;-81
2022/01/31 05:29:30;;;;;;;63.67;29.27;;;1.50;99.90;;;;;;5133858;27;20572;-77
2022/01/31 05:31:56;;;;;;;68.00;34.20;;;1.50;99.90;;;;;;5133067;27;20119;-80
2022/01/31 05:34:24;;;;;;;60.53;27.85;;;1.50;99.90;;;;;;5114805;27;20053;-74
2022/01/31 05:36:55;;;;;;;69.35;33.35;;;1.20;99.90;;;;;;5115096;27;20473;-79
2022/01/31 05:39:24;;;;;;;72.30;38.80;;;1.10;99.90;;;;;;5139554;27;20080;-79
2022/01/31 05:41:55;;;;;;;74.85;40.20;;;1.10;99.90;;;;;;5134126;27;20054;-79
2022/01/31 05:44:22;;;;;;;66.82;31.88;;;1.10;99.90;;;;;;5133002;27;20031;-69
2022/01/31 05:46:48;;;;;;;80.07;37.92;;;1.10;99.90;;;;;;5132954;27;20062;-75
2022/01/31 05:49:14;;;;;;;78.82;39.33;;;1.20;99.90;;;;;;5132959;27;20460;-79
2022/01/31 05:52:05;;;;;;;75.72;38.45;;;1.20;99.90;;;;;;5132958;27;20031;-68
2022/01/31 05:54:33;;;;;;;83.88;45.80;;;1.30;99.90;;;;;;5114146;27;20681;-78
2022/01/31 05:57:00;;;;;;;92.00;51.22;;;1.40;99.90;;;;;;5132916;27;20011;-77
2022/01/31 05:59:26;;;;;;;83.57;49.63;;;1.40;99.90;;;;;;5132731;27;20039;-78
2022/01/31 06:01:57;;;;;;;68.13;39.67;;;1.50;99.90;;;;;;5132283;27;20119;-77
2022/01/31 06:04:27;;;;;;;69.55;37.50;;;1.60;99.90;;;;;;5132661;27;20096;-72
2022/01/31 06:06:53;;;;;;;87.88;44.53;;;1.60;99.90;;;;;;5132283;27;20070;-77
2022/01/31 06:09:19;;;;;;;104.10;57.67;;;1.70;99.90;;;;;;5132536;27;20026;-76
2022/01/31 06:11:48;;;;;;;123.75;70.40;;;1.70;99.90;;;;;;5132305;27;20024;-78
2022/01/31 06:14:15;;;;;;;148.10;77.40;;;1.80;99.90;;;;;;5132115;27;20035;-78
2022/01/31 06:16:41;;;;;;;155.10;79.30;;;1.90;99.90;;;;;;5132318;27;20110;-78
2022/01/31 06:19:08;;;;;;;152.05;85.75;;;1.90;99.90;;;;;;5132190;27;20046;-76
2022/01/31 06:21:33;;;;;;;176.85;98.03;;;2.00;99.90;;;;;;5132427;27;20046;-77
2022/01/31 06:23:59;;;;;;;194.02;107.00;;;2.10;99.90;;;;;;5132199;27;20015;-72
2022/01/31 06:26:37;;;;;;;189.90;106.47;;;2.10;99.90;;;;;;5113740;28;20490;-79
2022/01/31 06:29:13;;;;;;;158.88;97.03;;;2.20;99.90;;;;;;5098417;27;20030;-73
2022/01/31 06:31:45;;;;;;;164.40;93.68;;;2.20;99.90;;;;;;5113750;27;20511;-78
2022/01/31 06:34:10;;;;;;;161.15;92.18;;;2.20;99.90;;;;;;5132279;27;20019;-78
2022/01/31 06:36:36;;;;;;;182.95;99.07;;;2.30;99.90;;;;;;5132287;27;20023;-76
2022/01/31 06:39:03;;;;;;;163.30;97.10;;;2.40;99.90;;;;;;5132043;27;20020;-72
2022/01/31 06:41:29;;;;;;;159.13;88.50;;;2.40;99.90;;;;;;5132095;28;20397;-78
2022/01/31 06:43:55;;;;;;;136.93;81.53;;;2.40;99.90;;;;;;5131899;28;20035;-78
2022/01/31 06:46:21;;;;;;;138.43;81.68;;;2.50;99.90;;;;;;5132234;28;20031;-74
2022/01/31 06:48:47;;;;;;;124.45;74.80;;;2.50;99.90;;;;;;5132017;28;20019;-75
2022/01/31 06:51:23;;;;;;;130.48;78.95;;;2.50;99.90;;;;;;5131977;28;20049;-77
2022/01/31 06:53:49;;;;;;;162.43;83.88;;;2.50;99.90;;;;;;5113332;28;20481;-71
2022/01/31 06:56:16;;;;;;;144.20;84.70;;;2.50;99.90;;;;;;5132228;28;20041;-75
2022/01/31 06:58:42;;;;;;;149.20;87.88;;;2.50;99.90;;;;;;5131959;28;20050;-78
2022/01/31 07:01:08;;;;;;;142.50;85.30;;;2.60;99.90;;;;;;5131716;27;20019;-76
2022/01/31 07:03:36;;;;;;;168.00;99.05;;;2.70;99.90;;;;;;5131753;28;20428;-77
2022/01/31 07:06:03;;;;;;;195.98;109.57;;;2.70;99.90;;;;;;5113186;28;20083;-78
2022/01/31 07:08:29;;;;;;;195.30;109.13;;;2.80;99.90;;;;;;5131391;28;20052;-74
2022/01/31 07:11:00;;;;;;;179.48;106.53;;;2.80;99.90;;;;;;5130665;28;20098;-78
2022/01/31 07:13:37;;;;;;;171.48;97.97;;;2.90;99.90;;;;;;5111817;28;20024;-78
2022/01/31 07:16:05;;;;;;;183.23;105.45;;;3.00;99.90;;;;;;5131096;28;20383;-74
2022/01/31 07:18:33;;;;;;;192.15;103.07;;;3.00;99.90;;;;;;5131411;28;20023;-78
2022/01/31 07:20:59;;;;;;;205.93;108.78;;;3.10;99.90;;;;;;5131605;28;20030;-78
2022/01/31 07:24:02;;;;;;;219.57;115.65;;;3.20;99.90;;;;;;5131612;28;20023;-72
2022/01/31 07:26:24;;;;;;;168.10;94.80;;;3.20;99.90;;;;;;5112644;28;20039;-75
2022/01/31 07:28:50;;;;;;;147.57;79.18;;;3.30;99.90;;;;;;5131373;28;20025;-75
2022/01/31 07:31:16;;;;;;;121.47;68.35;;;3.40;99.90;;;;;;5131499;28;20031;-77
2022/01/31 07:33:43;;;;;;;105.25;57.42;;;3.50;99.50;;;;;;5131341;28;20062;-78
2022/01/31 07:36:11;;;;;;;117.18;63.75;;;3.60;98.80;;;;;;5131403;28;20035;-78
2022/01/31 07:38:46;;;;;;;86.05;51.85;;;3.70;99.90;;;;;;5098945;27;20053;-77
2022/01/31 07:41:14;;;;;;;82.15;41.47;;;3.80;99.10;;;;;;5135270;27;20074;-73
2022/01/31 07:43:43;;;;;;;75.32;43.95;;;4.00;97.70;;;;;;5134995;27;20028;-79
2022/01/31 07:46:11;;;;;;;84.47;50.10;;;4.00;98.40;;;;;;5135060;27;20047;-78
2022/01/31 07:48:37;;;;;;;87.93;54.50;;;4.10;98.50;;;;;;5135006;27;20546;-78
2022/01/31 07:51:03;;;;;;;71.95;45.13;;;4.20;97.30;;;;;;5134984;27;20118;-74
2022/01/31 07:53:29;;;;;;;70.20;40.33;;;4.40;98.40;;;;;;5134996;27;20019;-74
2022/01/31 07:55:54;;;;;;;69.05;40.63;;;4.50;98.50;;;;;;5134984;27;20134;-78
2022/01/31 07:58:20;;;;;;;65.05;41.28;;;4.60;95.80;;;;;;5134773;27;20074;-78
2022/01/31 08:00:47;;;;;;;77.30;43.78;;;4.70;96.00;;;;;;5134926;27;20027;-78
2022/01/31 08:03:14;;;;;;;77.13;43.33;;;4.80;96.10;;;;;;5134535;27;20045;-75
2022/01/31 08:05:40;;;;;;;70.30;45.00;;;4.90;95.10;;;;;;5134311;27;20028;-77
2022/01/31 08:08:05;;;;;;;93.22;55.13;;;5.00;95.80;;;;;;5134141;27;20426;-78
2022/01/31 08:10:34;;;;;;;97.00;62.35;;;5.10;94.50;;;;;;5134420;27;20052;-78
2022/01/31 08:13:08;;;;;;;110.57;67.50;;;5.20;92.60;;;;;;5133917;27;20015;-74
2022/01/31 08:15:49;;;;;;;97.28;56.22;;;5.20;92.10;;;;;;5099038;27;20059;-79
2022/01/31 08:18:15;;;;;;;71.03;39.10;;;5.30;92.00;;;;;;5134233;27;20023;-79
2022/01/31 08:20:41;;;;;;;60.47;33.70;;;5.30;88.90;;;;;;5134235;27;20024;-80
2022/01/31 08:23:08;;;;;;;47.55;28.52;;;5.50;89.00;;;;;;5133844;27;20106;-79
2022/01/31 08:25:36;;;;;;;37.25;19.77;;;5.70;87.60;;;;;;5134048;27;20110;-78
2022/01/31 08:28:09;;;;;;;36.30;17.70;;;5.70;86.80;;;;;;5134563;27;20027;-78
2022/01/31 08:30:48;;;;;;;32.75;18.17;;;5.70;84.70;;;;;;5134556;27;20585;-78
2022/01/31 08:33:31;;;;;;;26.70;12.32;;;5.70;84.60;;;;;;5133714;27;20098;-78
2022/01/31 08:35:58;;;;;;;44.05;18.98;;;5.70;83.50;;;;;;5133183;27;20239;-73
2022/01/31 08:38:24;;;;;;;37.50;17.83;;;5.60;83.30;;;;;;5133313;27;20011;-74
2022/01/31 08:40:50;;;;;;;40.42;20.58;;;5.70;83.50;;;;;;5133701;27;20408;-75
2022/01/31 08:43:17;;;;;;;41.17;19.17;;;5.90;85.50;;;;;;5133226;27;20029;-78
2022/01/31 08:45:44;;;;;;;31.60;17.10;;;6.30;83.80;;;;;;5133642;27;20446;-77
2022/01/31 08:48:10;;;;;;;30.90;14.65;;;6.50;83.30;;;;;;5134145;27;20015;-79
2022/01/31 08:50:36;;;;;;;27.73;13.15;;;6.70;81.30;;;;;;5133262;27;20027;-76
2022/01/31 08:53:02;;;;;;;26.05;11.50;;;6.80;80.70;;;;;;5133394;27;20019;-77
2022/01/31 08:55:41;;;;;;;28.52;13.63;;;6.80;79.70;;;;;;5132941;27;20411;-76
2022/01/31 08:58:07;;;;;;;28.08;15.57;;;6.70;79.90;;;;;;5132473;27;20047;-78
2022/01/31 09:00:34;;;;;;;30.88;14.80;;;6.70;79.30;;;;;;5132968;27;20059;-76
2022/01/31 09:05:40;;;;;;;30.92;15.00;;;6.60;80.90;;;;;;5133350;27;20330;-77
2022/01/31 09:08:06;;;;;;;36.20;16.42;;;6.80;79.60;;;;;;5133346;27;20520;-77
2022/01/31 09:10:44;;;;;;;35.85;17.05;;;6.90;79.60;;;;;;5133330;27;20127;-78
2022/01/31 09:13:20;;;;;;;38.22;19.40;;;7.00;78.20;;;;;;5114291;27;20034;-76
2022/01/31 09:15:47;;;;;;;31.70;15.50;;;7.00;77.40;;;;;;5132642;27;20023;-77
2022/01/31 09:18:12;;;;;;;29.02;15.27;;;7.10;78.60;;;;;;5136456;27;20250;-78
2022/01/31 09:20:42;;;;;;;26.70;12.85;;;7.10;78.00;;;;;;5132942;27;20114;-72
2022/01/31 09:23:08;;;;;;;31.48;13.77;;;7.10;77.40;;;;;;5098066;27;20035;-75
2022/01/31 09:25:43;;;;;;;21.63;8.40;;;7.10;76.70;;;;;;5133317;27;20061;-70
2022/01/31 09:28:10;;;;;;;19.95;8.50;;;7.00;77.50;;;;;;5133500;27;20073;-78
2022/01/31 09:30:36;;;;;;;25.00;10.15;;;7.00;77.60;;;;;;5133734;27;20410;-73
2022/01/31 09:33:02;;;;;;;27.92;11.40;;;7.00;76.90;;;;;;5133655;27;20042;-76
2022/01/31 09:35:58;;;;;;;21.58;9.68;;;7.10;76.80;;;;;;5133467;27;20047;-77
2022/01/31 09:38:27;;;;;;;18.83;8.13;;;7.20;76.80;;;;;;5097837;27;20042;-75
2022/01/31 09:40:53;;;;;;;25.52;13.25;;;7.10;82.20;;;;;;5133809;27;20051;-78
2022/01/31 09:48:41;;;;;;;27.70;16.55;;;7.20;78.60;;;;;;5132777;27;20062;-73
2022/01/31 09:51:13;;;;;;;28.30;13.98;;;7.20;77.90;;;;;;5114617;27;20415;-75
2022/01/31 09:53:43;;;;;;;23.05;12.93;;;7.20;78.00;;;;;;5133017;27;20030;-76
2022/01/31 09:56:11;;;;;;;30.17;13.73;;;7.20;77.50;;;;;;5133105;27;20035;-73
2022/01/31 09:58:44;;;;;;;23.55;10.35;;;7.20;77.90;;;;;;5132872;27;20015;-78
2022/01/31 10:01:15;;;;;;;23.45;10.85;;;7.30;76.40;;;;;;5131890;27;20015;-76
2022/01/31 10:03:51;;;;;;;24.20;12.40;;;7.40;76.80;;;;;;5097234;27;20110;-77
2022/01/31 10:06:22;;;;;;;24.10;10.18;;;7.50;77.90;;;;;;5132631;27;20039;-77
2022/01/31 10:08:59;;;;;;;22.83;10.90;;;7.60;76.70;;;;;;5132339;27;20023;-72
2022/01/31 10:11:30;;;;;;;22.73;11.27;;;7.60;74.40;;;;;;5132561;27;20019;-73
2022/01/31 10:17:24;;;;;;;26.40;8.80;;;7.80;74.40;;;;;;5133159;27;20038;-74
2022/01/31 10:19:51;;;;;;;19.52;6.28;;;7.80;74.80;;;;;;5132482;27;20530;-74
2022/01/31 10:22:19;;;;;;;20.05;7.35;;;8.00;72.60;;;;;;5114424;27;20421;-77
2022/01/31 10:24:51;;;;;;;24.15;9.68;;;8.10;72.50;;;;;;5132428;27;20503;-78
2022/01/31 10:27:22;;;;;;;24.45;9.13;;;8.10;71.30;;;;;;5097114;27;20045;-74
2022/01/31 10:29:52;;;;;;;18.83;7.10;;;8.20;72.40;;;;;;5135659;27;20019;-75
2022/01/31 10:32:33;;;;;;;24.55;8.52;;;8.30;72.00;;;;;;5107902;28;20027;-77
2022/01/31 10:35:02;;;;;;;25.58;9.98;;;8.20;70.70;;;;;;5125513;27;20029;-74
2022/01/31 10:37:31;;;;;;;35.45;17.00;;;8.20;76.30;;;;;;5113675;27;20020;-71
2022/01/31 10:52:01;;;;;;;24.30;11.88;;;8.30;69.80;;;;;;5123512;28;20023;-78
2022/01/31 10:57:00;;;;;;;;;;;8.10;69.90;;;;;;5119410;27;20032;-70
2022/01/31 10:59:30;;;;;;;19.60;8.05;;;8.00;69.30;;;;;;5115709;27;19910;-78
2022/01/31 11:01:58;;;;;;;18.25;7.50;;;7.90;70.70;;;;;;5119711;27;20477;-77
2022/01/31 11:04:24;;;;;;;25.70;10.50;;;8.00;69.70;;;;;;5122886;28;20023;-74
2022/01/31 11:06:58;;;;;;;22.45;8.40;;;8.00;70.30;;;;;;5114197;28;20042;-76
2022/01/31 11:09:24;;;;;;;23.95;10.45;;;8.00;69.90;;;;;;5117670;28;20019;-74
2022/01/31 11:11:54;;;;;;;22.95;11.10;;;8.00;70.50;;;;;;5131134;27;20027;-76
2022/01/31 11:14:20;;;;;;;23.92;8.77;;;8.20;74.10;;;;;;5136791;27;20027;-75
2022/01/31 11:16:48;;;;;;;17.52;6.63;;;8.10;70.00;;;;;;5134836;27;20088;-79
2022/01/31 11:19:18;;;;;;;21.38;7.80;;;8.20;69.80;;;;;;5135306;27;20459;-72
2022/01/31 11:21:47;;;;;;;20.45;7.22;;;8.30;69.60;;;;;;5132614;27;20023;-79
2022/01/31 11:24:30;;;;;;;21.75;8.98;;;8.30;69.40;;;;;;5132502;27;20103;-79
2022/01/31 11:27:19;;;;;;;18.30;8.70;;;8.40;70.90;;;;;;5104838;28;20047;-79
2022/01/31 11:29:53;;;;;;;21.42;8.05;;;8.50;70.40;;;;;;5115140;28;20496;-79
2022/01/31 11:32:21;;;;;;;19.55;7.13;;;8.40;68.80;;;;;;5124786;28;20070;-80
2022/01/31 11:34:47;;;;;;;18.02;7.22;;;8.40;69.50;;;;;;5097031;28;20020;-79
2022/01/31 11:37:16;;;;;;;22.88;7.95;;;8.40;69.50;;;;;;5125521;27;20080;-78
2022/01/31 11:39:45;;;;;;;20.20;10.05;;;8.50;71.00;;;;;;5135645;27;20019;-72
2022/01/31 11:42:13;;;;;;;21.02;7.63;;;8.50;70.90;;;;;;5117150;27;20043;-79
2022/01/31 11:44:43;;;;;;;24.85;10.30;;;8.40;70.10;;;;;;5110554;27;20035;-79
2022/01/31 11:47:10;;;;;;;18.52;7.15;;;8.50;69.10;;;;;;5139792;27;20023;-78
2022/01/31 11:49:52;;;;;;;25.67;8.57;;;8.40;70.00;;;;;;5135468;27;20076;-78
2022/01/31 11:52:22;;;;;;;19.70;7.65;;;8.40;71.00;;;;;;5117413;27;20031;-79
2022/01/31 11:54:56;;;;;;;21.95;6.53;;;8.40;70.00;;;;;;5135529;27;20046;-78
2022/01/31 11:57:32;;;;;;;20.10;7.72;;;8.30;69.60;;;;;;5135409;27;20023;-74
2022/01/31 12:00:11;;;;;;;23.73;8.88;;;8.10;70.50;;;;;;5135032;27;20023;-77
2022/01/31 12:02:45;;;;;;;15.77;7.03;;;8.20;72.00;;;;;;5135285;27;20384;-78
2022/01/31 12:05:20;;;;;;;29.90;11.75;;;8.10;73.10;;;;;;5135057;27;20043;-78
2022/01/31 12:07:58;;;;;;;26.85;10.73;;;8.20;74.70;;;;;;5135071;27;20100;-74
2022/01/31 12:10:32;;;;;;;28.58;12.40;;;8.20;71.90;;;;;;5135002;27;20035;-77
2022/01/31 12:13:14;;;;;;;23.10;8.90;;;8.20;72.00;;;;;;5135197;27;20500;-78
2022/01/31 12:16:07;;;;;;;20.50;7.85;;;8.10;70.30;;;;;;5117106;27;20035;-77
2022/01/31 12:18:49;;;;;;;19.40;7.47;;;8.00;70.80;;;;;;5135190;27;20027;-79
2022/01/31 12:22:12;;;;;;;21.38;9.50;;;8.00;71.20;;;;;;5134985;27;20031;-76
2022/01/31 12:24:50;;;;;;;19.05;8.88;;;8.10;71.40;;;;;;5030601;28;20034;-78
2022/01/31 12:27:17;;;;;;;20.08;8.80;;;8.00;70.00;;;;;;5031176;28;20585;-78
2022/01/31 12:29:52;;;;;;;23.83;9.02;;;8.10;73.70;;;;;;5031084;28;20029;-74
2022/01/31 12:32:24;;;;;;;28.42;12.48;;;8.20;71.10;;;;;;5031074;28;20124;-80
2022/01/31 12:34:59;;;;;;;31.27;16.20;;;8.20;73.30;;;;;;5014673;28;20029;-76
2022/01/31 12:37:26;;;;;;;42.22;17.05;;;8.30;70.50;;;;;;5031021;28;20128;-76
2022/01/31 12:40:08;;;;;;;36.67;16.23;;;8.20;70.50;;;;;;5030918;28;20057;-78
2022/01/31 12:45:39;;;;;;;36.97;17.20;;;8.20;71.90;;;;;;5031105;28;20085;-78
2022/01/31 12:48:08;;;;;;;31.10;14.60;;;8.20;71.40;;;;;;5030950;28;20044;-78
2022/01/31 12:50:36;;;;;;;18.02;5.80;;;8.10;70.90;;;;;;5030914;28;20109;-69
2022/01/31 12:53:05;;;;;;;10.07;3.75;;;8.10;70.80;;;;;;5030603;28;20037;-75
2022/01/31 12:55:33;;;;;;;15.48;4.93;;;7.90;70.00;;;;;;5086677;28;20053;-78
2022/01/31 12:58:02;;;;;;;17.05;4.82;;;7.90;71.30;;;;;;5113380;28;20358;-80
2022/01/31 13:00:43;;;;;;;14.32;4.93;;;7.90;71.20;;;;;;5113578;28;20026;-79
2022/01/31 13:03:10;;;;;;;23.00;7.03;;;7.90;71.80;;;;;;5113616;28;20115;-69
2022/01/31 13:05:40;;;;;;;19.90;5.35;;;7.90;71.90;;;;;;5113613;28;20036;-80
2022/01/31 13:08:39;;;;;;;13.32;5.47;;;7.90;71.90;;;;;;5113614;28;20393;-80
2022/01/31 13:11:13;;;;;;;11.57;4.82;;;7.90;72.80;;;;;;5113467;28;20469;-79
2022/01/31 13:13:39;;;;;;;21.42;8.32;;;7.90;71.30;;;;;;5112937;28;20085;-79
2022/01/31 13:16:10;;;;;;;25.77;9.52;;;7.90;72.00;;;;;;5113301;28;20028;-76
2022/01/31 13:18:37;;;;;;;19.05;5.18;;;7.90;71.80;;;;;;5113321;28;20111;-78
2022/01/31 13:21:12;;;;;;;30.10;14.73;;;7.90;71.10;;;;;;5113141;28;20023;-81
2022/01/31 13:23:40;;;;;;;13.13;5.47;;;7.90;72.00;;;;;;5112928;28;20047;-79